KNE638 OPKC-OEJN
Flight info
| Callsign | KNE638 |
|---|---|
| Flight time | 3h 53m |
| Altitude | 40000 |
| Route | MELOM A454 TAPDO G652 TOKRA/N0454F280 Y511 ITRUX/N0471F400 Y511 ASMIS T218 IMGUT M309 VEMEM |
| Aircraft | A333/H-SDE3GHIJ2J3J5M1RVWXY/LB2D1 |
Departure
| Time | 2026-05-07 10:50 |
|---|---|
| Airport | Jinnah International Airport (OPKC) |
Arrival
| Time | 2026-05-07 14:43 |
|---|---|
| Airport | King Abdulaziz International Airport (OEJN) |
| Time | Latitude | Longitude | Altitude | Speed | Heading |
|---|---|---|---|---|---|
| 2026-05-07 10:12 | 24.90298 | 67.16838 | 105 ft | 0 kts | 125° |
| 2026-05-07 10:41 | 24.90303 | 67.16830 | 104 ft | 4 kts | 124° |
| 2026-05-07 10:41 | 24.90317 | 67.16807 | 104 ft | 4 kts | 121° |
| 2026-05-07 10:42 | 24.90330 | 67.16783 | 104 ft | 4 kts | 117° |
| 2026-05-07 10:42 | 24.90341 | 67.16757 | 104 ft | 4 kts | 108° |
| 2026-05-07 10:42 | 24.90345 | 67.16732 | 105 ft | 4 kts | 69° |
| 2026-05-07 10:42 | 24.90341 | 67.16722 | 104 ft | 1 kts | 346° |
| 2026-05-07 10:45 | 24.90344 | 67.16721 | 104 ft | 1 kts | 345° |
| 2026-05-07 10:45 | 24.90360 | 67.16717 | 103 ft | 3 kts | 345° |
| 2026-05-07 10:46 | 24.90379 | 67.16711 | 105 ft | 6 kts | 345° |
| 2026-05-07 10:46 | 24.90437 | 67.16695 | 105 ft | 7 kts | 353° |
| 2026-05-07 10:46 | 24.90486 | 67.16740 | 105 ft | 14 kts | 67° |
| 2026-05-07 10:46 | 24.90516 | 67.16856 | 106 ft | 16 kts | 74° |
| 2026-05-07 10:47 | 24.90538 | 67.16940 | 106 ft | 17 kts | 74° |
| 2026-05-07 10:47 | 24.90574 | 67.17083 | 106 ft | 23 kts | 74° |
| 2026-05-07 10:47 | 24.90620 | 67.17261 | 106 ft | 25 kts | 74° |
| 2026-05-07 10:47 | 24.90696 | 67.17428 | 106 ft | 25 kts | 38° |
| 2026-05-07 10:48 | 24.90794 | 67.17486 | 109 ft | 12 kts | 15° |
| 2026-05-07 10:48 | 24.90853 | 67.17457 | 107 ft | 9 kts | 298° |
| 2026-05-07 10:48 | 24.90853 | 67.17393 | 109 ft | 9 kts | 256° |
| 2026-05-07 10:48 | 24.90849 | 67.17380 | 109 ft | 1 kts | 255° |
| 2026-05-07 10:49 | 24.90847 | 67.17370 | 109 ft | 8 kts | 255° |
| 2026-05-07 10:49 | 24.90780 | 67.17103 | 109 ft | 67 kts | 254° |
| 2026-05-07 10:49 | 24.90603 | 67.16398 | 107 ft | 123 kts | 254° |
| 2026-05-07 10:49 | 24.90327 | 67.15313 | 110 ft | 171 kts | 254° |
| 2026-05-07 10:50 | 24.89978 | 67.13935 | 307 ft | 205 kts | 253° |
| 2026-05-07 10:50 | 24.89606 | 67.12363 | 1051 ft | 208 kts | 254° |
| 2026-05-07 10:50 | 24.89112 | 67.10877 | 1955 ft | 213 kts | 234° |
| 2026-05-07 10:50 | 24.87867 | 67.09951 | 2530 ft | 229 kts | 197° |
| 2026-05-07 10:51 | 24.86224 | 67.09975 | 3072 ft | 244 kts | 173° |
| 2026-05-07 10:51 | 24.84516 | 67.10271 | 3714 ft | 251 kts | 175° |
| 2026-05-07 10:51 | 24.82782 | 67.10189 | 4344 ft | 252 kts | 200° |
| 2026-05-07 10:51 | 24.81260 | 67.09213 | 4856 ft | 257 kts | 222° |
| 2026-05-07 10:52 | 24.79860 | 67.07926 | 5338 ft | 268 kts | 224° |
| 2026-05-07 10:52 | 24.78441 | 67.06542 | 5927 ft | 281 kts | 224° |
| 2026-05-07 10:52 | 24.76968 | 67.05102 | 6724 ft | 284 kts | 223° |
| 2026-05-07 10:52 | 24.75482 | 67.03647 | 7538 ft | 288 kts | 226° |
| 2026-05-07 10:53 | 24.74191 | 67.01948 | 8328 ft | 290 kts | 244° |
| 2026-05-07 10:53 | 24.73562 | 66.99862 | 9119 ft | 290 kts | 267° |
| 2026-05-07 10:53 | 24.73785 | 66.97683 | 9871 ft | 287 kts | 292° |
| 2026-05-07 10:53 | 24.74751 | 66.95724 | 10241 ft | 300 kts | 308° |
| 2026-05-07 10:54 | 24.76066 | 66.93885 | 10478 ft | 319 kts | 311° |
| 2026-05-07 10:54 | 24.77523 | 66.91944 | 10687 ft | 339 kts | 311° |
| 2026-05-07 10:54 | 24.79050 | 66.89892 | 11039 ft | 350 kts | 311° |
| 2026-05-07 10:54 | 24.80591 | 66.87793 | 11614 ft | 355 kts | 311° |
| 2026-05-07 10:55 | 24.82149 | 66.85656 | 12187 ft | 360 kts | 311° |
| 2026-05-07 10:55 | 24.83721 | 66.83490 | 12757 ft | 365 kts | 311° |
| 2026-05-07 10:55 | 24.85317 | 66.81286 | 13366 ft | 370 kts | 311° |
| 2026-05-07 10:55 | 24.86925 | 66.79060 | 13962 ft | 372 kts | 310° |
| 2026-05-07 10:56 | 24.88545 | 66.76815 | 14547 ft | 375 kts | 310° |
| 2026-05-07 10:56 | 24.90176 | 66.74555 | 15093 ft | 378 kts | 310° |
| 2026-05-07 10:56 | 24.91819 | 66.72275 | 15676 ft | 382 kts | 310° |
| 2026-05-07 10:56 | 24.93475 | 66.69976 | 16256 ft | 384 kts | 310° |
| 2026-05-07 10:57 | 24.95142 | 66.67661 | 16887 ft | 385 kts | 310° |
| 2026-05-07 10:57 | 24.96812 | 66.65340 | 17466 ft | 388 kts | 310° |
| 2026-05-07 10:57 | 24.98498 | 66.62997 | 18056 ft | 390 kts | 310° |
| 2026-05-07 10:57 | 25.00194 | 66.60637 | 18473 ft | 394 kts | 310° |
| 2026-05-07 10:58 | 25.01887 | 66.58282 | 18894 ft | 398 kts | 310° |
| 2026-05-07 10:58 | 25.03603 | 66.55883 | 19428 ft | 398 kts | 309° |
| 2026-05-07 10:58 | 25.05162 | 66.53346 | 19924 ft | 401 kts | 302° |
| 2026-05-07 10:58 | 25.06335 | 66.50529 | 20347 ft | 407 kts | 292° |
| 2026-05-07 10:59 | 25.07194 | 66.47538 | 20801 ft | 410 kts | 288° |
| 2026-05-07 10:59 | 25.07924 | 66.44474 | 21251 ft | 413 kts | 287° |
| 2026-05-07 10:59 | 25.08581 | 66.41416 | 21675 ft | 416 kts | 286° |
| 2026-05-07 10:59 | 25.09229 | 66.38292 | 22096 ft | 418 kts | 286° |
| 2026-05-07 11:00 | 25.09881 | 66.35155 | 22513 ft | 420 kts | 286° |
| 2026-05-07 11:00 | 25.10546 | 66.32011 | 22927 ft | 422 kts | 287° |
| 2026-05-07 11:00 | 25.11227 | 66.28850 | 23324 ft | 424 kts | 287° |
| 2026-05-07 11:00 | 25.11921 | 66.25671 | 23612 ft | 426 kts | 287° |
| 2026-05-07 11:01 | 25.12620 | 66.22489 | 23705 ft | 427 kts | 287° |
| 2026-05-07 11:01 | 25.13322 | 66.19302 | 23718 ft | 427 kts | 287° |
| 2026-05-07 11:01 | 25.14017 | 66.16145 | 23713 ft | 428 kts | 287° |
| 2026-05-07 11:01 | 25.14718 | 66.12957 | 23717 ft | 428 kts | 287° |
| 2026-05-07 11:02 | 25.15420 | 66.09763 | 23718 ft | 428 kts | 287° |
| 2026-05-07 11:02 | 25.16122 | 66.06563 | 23715 ft | 428 kts | 287° |
| 2026-05-07 11:02 | 25.16822 | 66.03365 | 23717 ft | 428 kts | 287° |
| 2026-05-07 11:02 | 25.17521 | 66.00171 | 23716 ft | 428 kts | 287° |
| 2026-05-07 11:03 | 25.18218 | 65.96979 | 23711 ft | 428 kts | 287° |
| 2026-05-07 11:03 | 25.18915 | 65.93786 | 23709 ft | 428 kts | 287° |
| 2026-05-07 11:03 | 25.19613 | 65.90585 | 23709 ft | 428 kts | 287° |
| 2026-05-07 11:03 | 25.20309 | 65.87386 | 23710 ft | 429 kts | 287° |
| 2026-05-07 11:04 | 25.21007 | 65.84180 | 23720 ft | 429 kts | 287° |
| 2026-05-07 11:04 | 25.21697 | 65.81005 | 23960 ft | 432 kts | 287° |
| 2026-05-07 11:04 | 25.22401 | 65.77766 | 24371 ft | 431 kts | 287° |
| 2026-05-07 11:04 | 25.23100 | 65.74541 | 24791 ft | 432 kts | 287° |
| 2026-05-07 11:05 | 25.23799 | 65.71313 | 25194 ft | 432 kts | 287° |
| 2026-05-07 11:05 | 25.24497 | 65.68084 | 25558 ft | 433 kts | 286° |
| 2026-05-07 11:05 | 25.25198 | 65.64840 | 25933 ft | 435 kts | 286° |
| 2026-05-07 11:05 | 25.25900 | 65.61589 | 26295 ft | 436 kts | 286° |
| 2026-05-07 11:06 | 25.26605 | 65.58320 | 26658 ft | 437 kts | 286° |
| 2026-05-07 11:06 | 25.27311 | 65.55043 | 27009 ft | 439 kts | 286° |
| 2026-05-07 11:06 | 25.28017 | 65.51759 | 27361 ft | 440 kts | 285° |
| 2026-05-07 11:06 | 25.28724 | 65.48467 | 27709 ft | 441 kts | 285° |
| 2026-05-07 11:07 | 25.29435 | 65.45155 | 28059 ft | 443 kts | 285° |
| 2026-05-07 11:07 | 25.30138 | 65.41875 | 28399 ft | 444 kts | 285° |
| 2026-05-07 11:07 | 25.30850 | 65.38547 | 28746 ft | 445 kts | 285° |
| 2026-05-07 11:07 | 25.31565 | 65.35204 | 29119 ft | 446 kts | 285° |
| 2026-05-07 11:08 | 25.32279 | 65.31857 | 29453 ft | 448 kts | 285° |
| 2026-05-07 11:08 | 25.32995 | 65.28498 | 29756 ft | 449 kts | 285° |
| 2026-05-07 11:08 | 25.33712 | 65.25132 | 30014 ft | 451 kts | 285° |
| 2026-05-07 11:08 | 25.34434 | 65.21744 | 30226 ft | 455 kts | 285° |
| 2026-05-07 11:09 | 25.35172 | 65.18336 | 30543 ft | 455 kts | 285° |
| 2026-05-07 11:09 | 25.35884 | 65.14994 | 31004 ft | 451 kts | 284° |
| 2026-05-07 11:09 | 25.36593 | 65.11624 | 31431 ft | 448 kts | 284° |
| 2026-05-07 11:09 | 25.37227 | 65.08259 | 31820 ft | 447 kts | 280° |
| 2026-05-07 11:10 | 25.37539 | 65.04831 | 32179 ft | 448 kts | 274° |
| 2026-05-07 11:10 | 25.37435 | 65.01388 | 32516 ft | 449 kts | 266° |
| 2026-05-07 11:10 | 25.36896 | 64.97976 | 32892 ft | 450 kts | 261° |
| 2026-05-07 11:10 | 25.36162 | 64.94611 | 33302 ft | 450 kts | 258° |
| 2026-05-07 11:11 | 25.35344 | 64.91286 | 33693 ft | 448 kts | 257° |
| 2026-05-07 11:11 | 25.34487 | 64.87976 | 34005 ft | 447 kts | 257° |
| 2026-05-07 11:11 | 25.33621 | 64.84674 | 34292 ft | 447 kts | 257° |
| 2026-05-07 11:11 | 25.32758 | 64.81373 | 34573 ft | 446 kts | 257° |
| 2026-05-07 11:12 | 25.31905 | 64.78079 | 34851 ft | 446 kts | 257° |
| 2026-05-07 11:12 | 25.31058 | 64.74776 | 35125 ft | 445 kts | 257° |
| 2026-05-07 11:12 | 25.30219 | 64.71487 | 35417 ft | 444 kts | 257° |
| 2026-05-07 11:12 | 25.29393 | 64.68233 | 35679 ft | 444 kts | 257° |
| 2026-05-07 11:13 | 25.28559 | 64.64947 | 35939 ft | 443 kts | 257° |
| 2026-05-07 11:13 | 25.27727 | 64.61670 | 36198 ft | 443 kts | 257° |
| 2026-05-07 11:13 | 25.26895 | 64.58393 | 36462 ft | 442 kts | 257° |
| 2026-05-07 11:13 | 25.26062 | 64.55122 | 36722 ft | 442 kts | 257° |
| 2026-05-07 11:14 | 25.25229 | 64.51850 | 36975 ft | 441 kts | 257° |
| 2026-05-07 11:14 | 25.24394 | 64.48582 | 37232 ft | 441 kts | 257° |
| 2026-05-07 11:14 | 25.23564 | 64.45331 | 37491 ft | 440 kts | 257° |
| 2026-05-07 11:14 | 25.22732 | 64.42078 | 37719 ft | 440 kts | 257° |
| 2026-05-07 11:15 | 25.21899 | 64.38824 | 37955 ft | 439 kts | 257° |
| 2026-05-07 11:15 | 25.21067 | 64.35579 | 38189 ft | 439 kts | 257° |
| 2026-05-07 11:15 | 25.20235 | 64.32336 | 38390 ft | 438 kts | 257° |
| 2026-05-07 11:15 | 25.19415 | 64.29143 | 38586 ft | 438 kts | 256° |
| 2026-05-07 11:16 | 25.18582 | 64.25902 | 38761 ft | 438 kts | 256° |
| 2026-05-07 11:16 | 25.17748 | 64.22660 | 38942 ft | 437 kts | 256° |
| 2026-05-07 11:16 | 25.16916 | 64.19427 | 39109 ft | 437 kts | 256° |
| 2026-05-07 11:16 | 25.16082 | 64.16195 | 39282 ft | 437 kts | 256° |
| 2026-05-07 11:17 | 25.15261 | 64.13010 | 39438 ft | 437 kts | 256° |
| 2026-05-07 11:17 | 25.14427 | 64.09780 | 39584 ft | 437 kts | 256° |
| 2026-05-07 11:17 | 25.13592 | 64.06552 | 39703 ft | 437 kts | 256° |
| 2026-05-07 11:17 | 25.12929 | 64.03991 | 39718 ft | 437 kts | 256° |
| 2026-05-07 11:18 | 25.12694 | 64.03081 | 39722 ft | 437 kts | 256° |
| 2026-05-07 11:18 | 25.11024 | 63.96640 | 39719 ft | 436 kts | 256° |
| 2026-05-07 11:19 | 25.09361 | 63.90233 | 39719 ft | 436 kts | 256° |
| 2026-05-07 11:19 | 25.07684 | 63.83790 | 39716 ft | 436 kts | 256° |
| 2026-05-07 11:20 | 25.06006 | 63.77355 | 39716 ft | 436 kts | 256° |
| 2026-05-07 11:20 | 25.04324 | 63.70914 | 39717 ft | 436 kts | 256° |
| 2026-05-07 11:21 | 25.02639 | 63.64472 | 39716 ft | 437 kts | 256° |
| 2026-05-07 11:21 | 25.00960 | 63.58071 | 39714 ft | 437 kts | 256° |
| 2026-05-07 11:22 | 24.99268 | 63.51631 | 39711 ft | 437 kts | 256° |
| 2026-05-07 11:22 | 24.97572 | 63.45188 | 39711 ft | 437 kts | 256° |
| 2026-05-07 11:23 | 24.95884 | 63.38786 | 39710 ft | 437 kts | 256° |
| 2026-05-07 11:23 | 24.94184 | 63.32350 | 39716 ft | 437 kts | 256° |
| 2026-05-07 11:24 | 24.92467 | 63.25861 | 39715 ft | 444 kts | 255° |
| 2026-05-07 11:24 | 24.90722 | 63.19277 | 39718 ft | 451 kts | 255° |
| 2026-05-07 11:25 | 24.88957 | 63.12634 | 39721 ft | 457 kts | 255° |
| 2026-05-07 11:25 | 24.87165 | 63.05909 | 39719 ft | 457 kts | 255° |
| 2026-05-07 11:26 | 24.85375 | 62.99202 | 39724 ft | 457 kts | 255° |
| 2026-05-07 11:26 | 24.83574 | 62.92465 | 39724 ft | 458 kts | 255° |
| 2026-05-07 11:27 | 24.81770 | 62.85733 | 39727 ft | 458 kts | 255° |
| 2026-05-07 11:27 | 24.79974 | 62.79040 | 39727 ft | 458 kts | 255° |
| 2026-05-07 11:28 | 24.78163 | 62.72306 | 39726 ft | 459 kts | 255° |
| 2026-05-07 11:28 | 24.76350 | 62.65574 | 39727 ft | 459 kts | 255° |
| 2026-05-07 11:29 | 24.74530 | 62.58833 | 39731 ft | 459 kts | 255° |
| 2026-05-07 11:29 | 24.72711 | 62.52107 | 39728 ft | 459 kts | 255° |
| 2026-05-07 11:30 | 24.70888 | 62.45381 | 39730 ft | 459 kts | 255° |
| 2026-05-07 11:30 | 24.69058 | 62.38641 | 39734 ft | 459 kts | 255° |
| 2026-05-07 11:31 | 24.67239 | 62.31955 | 39732 ft | 459 kts | 255° |
| 2026-05-07 11:31 | 24.65405 | 62.25226 | 39733 ft | 459 kts | 255° |
| 2026-05-07 11:32 | 24.62642 | 62.15110 | 39731 ft | 460 kts | 255° |
| 2026-05-07 11:33 | 24.61108 | 62.09509 | 39729 ft | 460 kts | 255° |
| 2026-05-07 11:33 | 24.58958 | 62.01673 | 39735 ft | 460 kts | 255° |
| 2026-05-07 11:34 | 24.57418 | 61.96072 | 39734 ft | 460 kts | 255° |
| 2026-05-07 11:34 | 24.55565 | 61.89340 | 39732 ft | 460 kts | 254° |
| 2026-05-07 11:35 | 24.53707 | 61.82605 | 39736 ft | 461 kts | 254° |
| 2026-05-07 11:35 | 24.51844 | 61.75868 | 39735 ft | 461 kts | 254° |
| 2026-05-07 11:36 | 24.49976 | 61.69124 | 39733 ft | 461 kts | 254° |
| 2026-05-07 11:36 | 24.48108 | 61.62389 | 39736 ft | 461 kts | 254° |
| 2026-05-07 11:37 | 24.46246 | 61.55693 | 39738 ft | 461 kts | 254° |
| 2026-05-07 11:37 | 24.44373 | 61.48966 | 39737 ft | 461 kts | 254° |
| 2026-05-07 11:38 | 24.42495 | 61.42237 | 39742 ft | 461 kts | 254° |
| 2026-05-07 11:38 | 24.40616 | 61.35515 | 39740 ft | 461 kts | 254° |
| 2026-05-07 11:39 | 24.38611 | 61.28815 | 39744 ft | 461 kts | 252° |
| 2026-05-07 11:39 | 24.36463 | 61.22230 | 39744 ft | 461 kts | 251° |
| 2026-05-07 11:40 | 24.34283 | 61.15609 | 39747 ft | 461 kts | 251° |
| 2026-05-07 11:40 | 24.32117 | 61.08981 | 39748 ft | 461 kts | 252° |
| 2026-05-07 11:41 | 24.29970 | 61.02383 | 39746 ft | 461 kts | 251° |
| 2026-05-07 11:41 | 24.27799 | 60.95713 | 39746 ft | 462 kts | 251° |
| 2026-05-07 11:42 | 24.25649 | 60.89118 | 39748 ft | 462 kts | 251° |
| 2026-05-07 11:42 | 24.23482 | 60.82485 | 39753 ft | 462 kts | 251° |
| 2026-05-07 11:43 | 24.21310 | 60.75851 | 39749 ft | 462 kts | 251° |
| 2026-05-07 11:43 | 24.19137 | 60.69222 | 39748 ft | 463 kts | 251° |
| 2026-05-07 11:44 | 24.16953 | 60.62574 | 39752 ft | 463 kts | 251° |
| 2026-05-07 11:44 | 24.14783 | 60.55978 | 39751 ft | 463 kts | 251° |
| 2026-05-07 11:45 | 24.12597 | 60.49344 | 39760 ft | 463 kts | 251° |
| 2026-05-07 11:45 | 24.10407 | 60.42710 | 39757 ft | 463 kts | 251° |
| 2026-05-07 11:46 | 24.08216 | 60.36082 | 39760 ft | 463 kts | 251° |
| 2026-05-07 11:46 | 24.06019 | 60.29449 | 39761 ft | 464 kts | 251° |
| 2026-05-07 11:47 | 24.03813 | 60.22799 | 39773 ft | 464 kts | 251° |
| 2026-05-07 11:47 | 24.01611 | 60.16172 | 39757 ft | 463 kts | 251° |
| 2026-05-07 11:48 | 23.99419 | 60.09585 | 39760 ft | 464 kts | 251° |
| 2026-05-07 11:48 | 23.97208 | 60.02954 | 39769 ft | 464 kts | 251° |
| 2026-05-07 11:49 | 23.94995 | 59.96323 | 39768 ft | 464 kts | 251° |
| 2026-05-07 11:49 | 23.92772 | 59.89678 | 39764 ft | 465 kts | 251° |
| 2026-05-07 11:50 | 23.90551 | 59.83047 | 39759 ft | 465 kts | 251° |
| 2026-05-07 11:50 | 23.88336 | 59.76446 | 39768 ft | 465 kts | 251° |
| 2026-05-07 11:51 | 23.86107 | 59.69812 | 39761 ft | 465 kts | 251° |
| 2026-05-07 11:51 | 23.83875 | 59.63183 | 39771 ft | 465 kts | 250° |
| 2026-05-07 11:52 | 23.81640 | 59.56552 | 39771 ft | 465 kts | 250° |
| 2026-05-07 11:52 | 23.79392 | 59.49924 | 39764 ft | 465 kts | 250° |
| 2026-05-07 11:53 | 23.77048 | 59.43330 | 39776 ft | 465 kts | 249° |
| 2026-05-07 11:53 | 23.74677 | 59.36794 | 39775 ft | 466 kts | 249° |
| 2026-05-07 11:54 | 23.72291 | 59.30214 | 39781 ft | 465 kts | 249° |
| 2026-05-07 11:54 | 23.69915 | 59.23646 | 39766 ft | 465 kts | 249° |
| 2026-05-07 11:55 | 23.67538 | 59.17073 | 39768 ft | 465 kts | 249° |
| 2026-05-07 11:55 | 23.65174 | 59.10547 | 39766 ft | 465 kts | 249° |
| 2026-05-07 11:56 | 23.62792 | 59.03982 | 39768 ft | 465 kts | 249° |
| 2026-05-07 11:56 | 23.60408 | 58.97422 | 39769 ft | 465 kts | 249° |
| 2026-05-07 11:57 | 23.58021 | 58.90862 | 39757 ft | 465 kts | 249° |
| 2026-05-07 11:57 | 23.55631 | 58.84307 | 39766 ft | 465 kts | 249° |
| 2026-05-07 11:58 | 23.53254 | 58.77794 | 39777 ft | 465 kts | 249° |
| 2026-05-07 11:58 | 23.50862 | 58.71253 | 39776 ft | 465 kts | 249° |
| 2026-05-07 11:59 | 23.48462 | 58.64699 | 39765 ft | 465 kts | 249° |
| 2026-05-07 11:59 | 23.46064 | 58.58160 | 39776 ft | 465 kts | 249° |
| 2026-05-07 12:00 | 23.43662 | 58.51619 | 39771 ft | 465 kts | 249° |
| 2026-05-07 12:00 | 23.41252 | 58.45067 | 39767 ft | 465 kts | 249° |
| 2026-05-07 12:01 | 23.38825 | 58.38592 | 39769 ft | 465 kts | 248° |
| 2026-05-07 12:01 | 23.36336 | 58.32077 | 39773 ft | 465 kts | 248° |
| 2026-05-07 12:02 | 23.33850 | 58.25581 | 39789 ft | 465 kts | 248° |
| 2026-05-07 12:02 | 23.31360 | 58.19075 | 39800 ft | 465 kts | 248° |
| 2026-05-07 12:03 | 23.28870 | 58.12574 | 39816 ft | 464 kts | 248° |
| 2026-05-07 12:03 | 23.26400 | 58.06126 | 39834 ft | 465 kts | 248° |
| 2026-05-07 12:04 | 23.23942 | 57.99613 | 39845 ft | 465 kts | 249° |
| 2026-05-07 12:04 | 23.21656 | 57.93027 | 39849 ft | 465 kts | 250° |
| 2026-05-07 12:05 | 23.19434 | 57.86470 | 39863 ft | 465 kts | 250° |
| 2026-05-07 12:05 | 23.17183 | 57.79876 | 39883 ft | 465 kts | 250° |
| 2026-05-07 12:06 | 23.14913 | 57.73287 | 39884 ft | 465 kts | 250° |
| 2026-05-07 12:06 | 23.12637 | 57.66705 | 39910 ft | 465 kts | 250° |
| 2026-05-07 12:07 | 23.10356 | 57.60122 | 39897 ft | 465 kts | 250° |
| 2026-05-07 12:07 | 23.08085 | 57.53574 | 39914 ft | 465 kts | 250° |
| 2026-05-07 12:08 | 23.05800 | 57.46994 | 39928 ft | 466 kts | 250° |
| 2026-05-07 12:08 | 23.03511 | 57.40414 | 39927 ft | 466 kts | 250° |
| 2026-05-07 12:09 | 23.01222 | 57.33844 | 39926 ft | 466 kts | 250° |
| 2026-05-07 12:09 | 22.98547 | 57.27429 | 39926 ft | 466 kts | 244° |
| 2026-05-07 12:10 | 22.95600 | 57.21150 | 39923 ft | 467 kts | 243° |
| 2026-05-07 12:10 | 22.92618 | 57.14933 | 39917 ft | 467 kts | 243° |
| 2026-05-07 12:11 | 22.89621 | 57.08691 | 39926 ft | 467 kts | 243° |
| 2026-05-07 12:11 | 22.86624 | 57.02439 | 39917 ft | 467 kts | 243° |
| 2026-05-07 12:12 | 22.83627 | 56.96185 | 39916 ft | 467 kts | 243° |
| 2026-05-07 12:12 | 22.80627 | 56.89927 | 39907 ft | 467 kts | 243° |
| 2026-05-07 12:13 | 22.77643 | 56.83710 | 39901 ft | 467 kts | 243° |
| 2026-05-07 12:13 | 22.74642 | 56.77466 | 39882 ft | 466 kts | 243° |
| 2026-05-07 12:14 | 22.71643 | 56.71233 | 39876 ft | 466 kts | 243° |
| 2026-05-07 12:14 | 22.68636 | 56.64990 | 39868 ft | 467 kts | 243° |
| 2026-05-07 12:15 | 22.65648 | 56.58797 | 39852 ft | 467 kts | 243° |
| 2026-05-07 12:15 | 22.62633 | 56.52554 | 39861 ft | 467 kts | 243° |
| 2026-05-07 12:16 | 22.59619 | 56.46321 | 39852 ft | 467 kts | 243° |
| 2026-05-07 12:16 | 22.56597 | 56.40078 | 39840 ft | 468 kts | 243° |
| 2026-05-07 12:17 | 22.53576 | 56.33844 | 39841 ft | 468 kts | 243° |
| 2026-05-07 12:17 | 22.50575 | 56.27650 | 39841 ft | 468 kts | 243° |
| 2026-05-07 12:18 | 22.47551 | 56.21416 | 39841 ft | 468 kts | 243° |
| 2026-05-07 12:18 | 22.44519 | 56.15172 | 39840 ft | 468 kts | 243° |
| 2026-05-07 12:19 | 22.41482 | 56.08929 | 39827 ft | 468 kts | 243° |
| 2026-05-07 12:19 | 22.38448 | 56.02698 | 39831 ft | 468 kts | 243° |
| 2026-05-07 12:20 | 22.35421 | 55.96510 | 39824 ft | 468 kts | 243° |
| 2026-05-07 12:20 | 22.32364 | 55.90289 | 39829 ft | 468 kts | 243° |
| 2026-05-07 12:21 | 22.29818 | 55.85113 | 39819 ft | 468 kts | 243° |
| 2026-05-07 12:21 | 22.26761 | 55.78904 | 39822 ft | 468 kts | 243° |
| 2026-05-07 12:22 | 22.23703 | 55.72684 | 39817 ft | 468 kts | 243° |
| 2026-05-07 12:22 | 22.20666 | 55.66497 | 39800 ft | 468 kts | 243° |
| 2026-05-07 12:23 | 22.17751 | 55.60211 | 39807 ft | 468 kts | 249° |
| 2026-05-07 12:23 | 22.16251 | 55.53392 | 39806 ft | 467 kts | 266° |
| 2026-05-07 12:24 | 22.16422 | 55.46415 | 39793 ft | 468 kts | 274° |
| 2026-05-07 12:24 | 22.17006 | 55.39396 | 39809 ft | 469 kts | 275° |
| 2026-05-07 12:25 | 22.17631 | 55.32441 | 39802 ft | 469 kts | 275° |
| 2026-05-07 12:25 | 22.18227 | 55.25425 | 39796 ft | 468 kts | 274° |
| 2026-05-07 12:26 | 22.18794 | 55.18419 | 39790 ft | 468 kts | 274° |
| 2026-05-07 12:26 | 22.19350 | 55.11416 | 39802 ft | 468 kts | 274° |
| 2026-05-07 12:27 | 22.19903 | 55.04442 | 39787 ft | 468 kts | 274° |
| 2026-05-07 12:27 | 22.20461 | 54.97444 | 39795 ft | 468 kts | 274° |
| 2026-05-07 12:28 | 22.21020 | 54.90429 | 39794 ft | 469 kts | 274° |
| 2026-05-07 12:28 | 22.21576 | 54.83412 | 39787 ft | 469 kts | 274° |
| 2026-05-07 12:29 | 22.22125 | 54.76447 | 39794 ft | 468 kts | 274° |
| 2026-05-07 12:29 | 22.22674 | 54.69441 | 39782 ft | 467 kts | 274° |
| 2026-05-07 12:30 | 22.23218 | 54.62452 | 39787 ft | 467 kts | 274° |
| 2026-05-07 12:30 | 22.23758 | 54.55464 | 39779 ft | 467 kts | 274° |
| 2026-05-07 12:31 | 22.24297 | 54.48467 | 39786 ft | 467 kts | 274° |
| 2026-05-07 12:31 | 22.24829 | 54.41518 | 39779 ft | 467 kts | 274° |
| 2026-05-07 12:32 | 22.25360 | 54.34531 | 39777 ft | 467 kts | 274° |
| 2026-05-07 12:32 | 22.25889 | 54.27545 | 39791 ft | 467 kts | 274° |
| 2026-05-07 12:33 | 22.26677 | 54.17063 | 39784 ft | 467 kts | 274° |
| 2026-05-07 12:33 | 22.27198 | 54.10072 | 39779 ft | 467 kts | 274° |
| 2026-05-07 12:34 | 22.27717 | 54.03082 | 39782 ft | 467 kts | 274° |
| 2026-05-07 12:34 | 22.28230 | 53.96122 | 39786 ft | 467 kts | 273° |
| 2026-05-07 12:35 | 22.28741 | 53.89143 | 39778 ft | 466 kts | 273° |
| 2026-05-07 12:35 | 22.29248 | 53.82168 | 39773 ft | 466 kts | 273° |
| 2026-05-07 12:36 | 22.29753 | 53.75192 | 39777 ft | 466 kts | 273° |
| 2026-05-07 12:36 | 22.30255 | 53.68213 | 39776 ft | 466 kts | 273° |
| 2026-05-07 12:37 | 22.30750 | 53.61282 | 39774 ft | 466 kts | 273° |
| 2026-05-07 12:37 | 22.31246 | 53.54294 | 39773 ft | 466 kts | 273° |
| 2026-05-07 12:38 | 22.31738 | 53.47312 | 39776 ft | 466 kts | 273° |
| 2026-05-07 12:38 | 22.32225 | 53.40337 | 39770 ft | 466 kts | 273° |
| 2026-05-07 12:39 | 22.32711 | 53.33349 | 39769 ft | 466 kts | 273° |
| 2026-05-07 12:39 | 22.33193 | 53.26369 | 39767 ft | 466 kts | 273° |
| 2026-05-07 12:40 | 22.33673 | 53.19388 | 39768 ft | 466 kts | 273° |
| 2026-05-07 12:40 | 22.34147 | 53.12438 | 39765 ft | 466 kts | 273° |
| 2026-05-07 12:41 | 22.34620 | 53.05470 | 39766 ft | 465 kts | 273° |
| 2026-05-07 12:41 | 22.35089 | 52.98509 | 39766 ft | 465 kts | 273° |
| 2026-05-07 12:42 | 22.35556 | 52.91530 | 39763 ft | 465 kts | 273° |
| 2026-05-07 12:42 | 22.36020 | 52.84559 | 39763 ft | 465 kts | 273° |
| 2026-05-07 12:43 | 22.36480 | 52.77584 | 39763 ft | 465 kts | 273° |
| 2026-05-07 12:43 | 22.36938 | 52.70608 | 39762 ft | 465 kts | 273° |
| 2026-05-07 12:44 | 22.37394 | 52.63626 | 39760 ft | 465 kts | 273° |
| 2026-05-07 12:44 | 22.37846 | 52.56649 | 39760 ft | 465 kts | 273° |
| 2026-05-07 12:45 | 22.38292 | 52.49719 | 39757 ft | 465 kts | 273° |
| 2026-05-07 12:45 | 22.38738 | 52.42737 | 39757 ft | 465 kts | 273° |
| 2026-05-07 12:46 | 22.39182 | 52.35754 | 39760 ft | 465 kts | 272° |
| 2026-05-07 12:46 | 22.39621 | 52.28787 | 39760 ft | 464 kts | 272° |
| 2026-05-07 12:47 | 22.40055 | 52.21861 | 39755 ft | 464 kts | 272° |
| 2026-05-07 12:47 | 22.40488 | 52.14897 | 39755 ft | 464 kts | 272° |
| 2026-05-07 12:48 | 22.40919 | 52.07933 | 39755 ft | 464 kts | 272° |
| 2026-05-07 12:48 | 22.41349 | 52.00958 | 39755 ft | 464 kts | 272° |
| 2026-05-07 12:49 | 22.41772 | 51.94040 | 39755 ft | 464 kts | 272° |
| 2026-05-07 12:49 | 22.42194 | 51.87071 | 39755 ft | 464 kts | 272° |
| 2026-05-07 12:50 | 22.42612 | 51.80105 | 39762 ft | 464 kts | 272° |
| 2026-05-07 12:50 | 22.43028 | 51.73131 | 39757 ft | 464 kts | 272° |
| 2026-05-07 12:51 | 22.43440 | 51.66162 | 39755 ft | 464 kts | 272° |
| 2026-05-07 12:51 | 22.43850 | 51.59193 | 39757 ft | 463 kts | 272° |
| 2026-05-07 12:52 | 22.44255 | 51.52252 | 39755 ft | 461 kts | 272° |
| 2026-05-07 12:52 | 22.44653 | 51.45380 | 39757 ft | 461 kts | 272° |
| 2026-05-07 12:53 | 22.45051 | 51.38455 | 39760 ft | 461 kts | 272° |
| 2026-05-07 12:53 | 22.45446 | 51.31535 | 39761 ft | 461 kts | 272° |
| 2026-05-07 12:54 | 22.45838 | 51.24617 | 39758 ft | 460 kts | 272° |
| 2026-05-07 12:54 | 22.46226 | 51.17704 | 39758 ft | 460 kts | 272° |
| 2026-05-07 12:55 | 22.46610 | 51.10824 | 39757 ft | 460 kts | 272° |
| 2026-05-07 12:55 | 22.46993 | 51.03910 | 39757 ft | 460 kts | 272° |
| 2026-05-07 12:56 | 22.47372 | 50.97002 | 39757 ft | 460 kts | 272° |
| 2026-05-07 12:56 | 22.47749 | 50.90088 | 39757 ft | 460 kts | 272° |
| 2026-05-07 12:57 | 22.48121 | 50.83219 | 39760 ft | 459 kts | 271° |
| 2026-05-07 12:57 | 22.48490 | 50.76340 | 39758 ft | 458 kts | 271° |
| 2026-05-07 12:58 | 22.48856 | 50.69470 | 39758 ft | 457 kts | 271° |
| 2026-05-07 12:58 | 22.49219 | 50.62595 | 39762 ft | 457 kts | 271° |
| 2026-05-07 12:59 | 22.49577 | 50.55759 | 39759 ft | 457 kts | 271° |
| 2026-05-07 12:59 | 22.49935 | 50.48874 | 39761 ft | 457 kts | 271° |
| 2026-05-07 13:00 | 22.50289 | 50.42000 | 39764 ft | 457 kts | 271° |
| 2026-05-07 13:00 | 22.50638 | 50.35167 | 39764 ft | 457 kts | 271° |
| 2026-05-07 13:01 | 22.50986 | 50.28296 | 39758 ft | 457 kts | 271° |
| 2026-05-07 13:01 | 22.51331 | 50.21430 | 39761 ft | 457 kts | 271° |
| 2026-05-07 13:02 | 22.51674 | 50.14561 | 39758 ft | 457 kts | 271° |
| 2026-05-07 13:02 | 22.52013 | 50.07707 | 39758 ft | 456 kts | 271° |
| 2026-05-07 13:03 | 22.52348 | 50.00849 | 39763 ft | 456 kts | 271° |
| 2026-05-07 13:03 | 22.52679 | 49.94033 | 39761 ft | 456 kts | 271° |
| 2026-05-07 13:04 | 22.53010 | 49.87160 | 39766 ft | 456 kts | 271° |
| 2026-05-07 13:04 | 22.53337 | 49.80307 | 39764 ft | 456 kts | 271° |
| 2026-05-07 13:05 | 22.53772 | 49.73447 | 39768 ft | 457 kts | 273° |
| 2026-05-07 13:05 | 22.54428 | 49.66649 | 39766 ft | 457 kts | 274° |
| 2026-05-07 13:06 | 22.55122 | 49.59800 | 39766 ft | 457 kts | 274° |
| 2026-05-07 13:06 | 22.55791 | 49.52949 | 39765 ft | 457 kts | 274° |
| 2026-05-07 13:07 | 22.56436 | 49.46152 | 39771 ft | 456 kts | 273° |
| 2026-05-07 13:07 | 22.57076 | 49.39324 | 39768 ft | 454 kts | 273° |
| 2026-05-07 13:08 | 22.57709 | 49.32528 | 39768 ft | 454 kts | 273° |
| 2026-05-07 13:08 | 22.58341 | 49.25730 | 39768 ft | 453 kts | 273° |
| 2026-05-07 13:09 | 22.58966 | 49.18982 | 39772 ft | 453 kts | 273° |
| 2026-05-07 13:09 | 22.59591 | 49.12190 | 39770 ft | 453 kts | 273° |
| 2026-05-07 13:10 | 22.60215 | 49.05395 | 39772 ft | 453 kts | 273° |
| 2026-05-07 13:10 | 22.60730 | 48.99750 | 39774 ft | 453 kts | 273° |
| 2026-05-07 13:11 | 22.61448 | 48.91858 | 39775 ft | 453 kts | 273° |
| 2026-05-07 13:11 | 22.61959 | 48.86208 | 39777 ft | 453 kts | 273° |
| 2026-05-07 13:12 | 22.62571 | 48.79416 | 39779 ft | 451 kts | 272° |
| 2026-05-07 13:12 | 22.63177 | 48.72666 | 39784 ft | 450 kts | 272° |
| 2026-05-07 13:13 | 22.63780 | 48.65909 | 39782 ft | 450 kts | 272° |
| 2026-05-07 13:13 | 22.64378 | 48.59168 | 39783 ft | 450 kts | 272° |
| 2026-05-07 13:14 | 22.64974 | 48.52421 | 39782 ft | 450 kts | 272° |
| 2026-05-07 13:14 | 22.65563 | 48.45722 | 39785 ft | 450 kts | 272° |
| 2026-05-07 13:15 | 22.66154 | 48.38980 | 39787 ft | 450 kts | 272° |
| 2026-05-07 13:15 | 22.66742 | 48.32228 | 39787 ft | 449 kts | 272° |
| 2026-05-07 13:16 | 22.67325 | 48.25496 | 39787 ft | 449 kts | 272° |
| 2026-05-07 13:16 | 22.67907 | 48.18757 | 39787 ft | 448 kts | 272° |
| 2026-05-07 13:17 | 22.68481 | 48.12077 | 39785 ft | 447 kts | 272° |
| 2026-05-07 13:17 | 22.69054 | 48.05369 | 39785 ft | 447 kts | 272° |
| 2026-05-07 13:18 | 22.69622 | 47.98655 | 39788 ft | 447 kts | 272° |
| 2026-05-07 13:18 | 22.70185 | 47.91945 | 39790 ft | 448 kts | 272° |
| 2026-05-07 13:19 | 22.70747 | 47.85228 | 39790 ft | 448 kts | 272° |
| 2026-05-07 13:19 | 22.71303 | 47.78545 | 39798 ft | 448 kts | 272° |
| 2026-05-07 13:20 | 22.71860 | 47.71817 | 39801 ft | 448 kts | 272° |
| 2026-05-07 13:20 | 22.72416 | 47.65079 | 39811 ft | 448 kts | 272° |
| 2026-05-07 13:21 | 22.72964 | 47.58399 | 39806 ft | 447 kts | 271° |
| 2026-05-07 13:21 | 22.73512 | 47.51683 | 39814 ft | 447 kts | 271° |
| 2026-05-07 13:22 | 22.74058 | 47.44964 | 39818 ft | 447 kts | 271° |
| 2026-05-07 13:22 | 22.74600 | 47.38249 | 39824 ft | 447 kts | 271° |
| 2026-05-07 13:23 | 22.75140 | 47.31529 | 39822 ft | 448 kts | 271° |
| 2026-05-07 13:23 | 22.75677 | 47.24806 | 39835 ft | 448 kts | 271° |
| 2026-05-07 13:24 | 22.76208 | 47.18121 | 39831 ft | 448 kts | 271° |
| 2026-05-07 13:24 | 22.76744 | 47.11392 | 39835 ft | 448 kts | 271° |
| 2026-05-07 13:25 | 22.77279 | 47.04663 | 39850 ft | 448 kts | 271° |
| 2026-05-07 13:25 | 22.77809 | 46.97956 | 39844 ft | 446 kts | 271° |
| 2026-05-07 13:26 | 22.78336 | 46.91251 | 39849 ft | 446 kts | 271° |
| 2026-05-07 13:26 | 22.78856 | 46.84593 | 39846 ft | 446 kts | 271° |
| 2026-05-07 13:27 | 22.79375 | 46.77901 | 39862 ft | 446 kts | 271° |
| 2026-05-07 13:27 | 22.79893 | 46.71195 | 39865 ft | 446 kts | 271° |
| 2026-05-07 13:28 | 22.80408 | 46.64488 | 39870 ft | 446 kts | 271° |
| 2026-05-07 13:28 | 22.80920 | 46.57785 | 39878 ft | 446 kts | 271° |
| 2026-05-07 13:29 | 22.81425 | 46.51133 | 39884 ft | 446 kts | 271° |
| 2026-05-07 13:29 | 22.81931 | 46.44441 | 39884 ft | 444 kts | 271° |
| 2026-05-07 13:30 | 22.82432 | 46.37772 | 39896 ft | 443 kts | 271° |
| 2026-05-07 13:30 | 22.82926 | 46.31117 | 39890 ft | 443 kts | 271° |
| 2026-05-07 13:31 | 22.83417 | 46.24453 | 39892 ft | 443 kts | 271° |
| 2026-05-07 13:31 | 22.83903 | 46.17839 | 39892 ft | 443 kts | 271° |
| 2026-05-07 13:32 | 22.84389 | 46.11175 | 39889 ft | 443 kts | 270° |
| 2026-05-07 13:32 | 22.84871 | 46.04528 | 39887 ft | 442 kts | 270° |
| 2026-05-07 13:33 | 22.85352 | 45.97870 | 39880 ft | 442 kts | 270° |
| 2026-05-07 13:33 | 22.85829 | 45.91226 | 39881 ft | 441 kts | 270° |
| 2026-05-07 13:34 | 22.86535 | 45.81313 | 39884 ft | 439 kts | 270° |
| 2026-05-07 13:35 | 22.86999 | 45.74748 | 39878 ft | 439 kts | 270° |
| 2026-05-07 13:35 | 22.87462 | 45.68155 | 39882 ft | 438 kts | 270° |
| 2026-05-07 13:36 | 22.87922 | 45.61568 | 39882 ft | 438 kts | 270° |
| 2026-05-07 13:36 | 22.88380 | 45.54975 | 39884 ft | 438 kts | 270° |
| 2026-05-07 13:37 | 22.88835 | 45.48386 | 39895 ft | 438 kts | 270° |
| 2026-05-07 13:37 | 22.89285 | 45.41829 | 39892 ft | 438 kts | 270° |
| 2026-05-07 13:38 | 22.89734 | 45.35241 | 39895 ft | 437 kts | 270° |
| 2026-05-07 13:38 | 22.90182 | 45.28669 | 39887 ft | 435 kts | 270° |
| 2026-05-07 13:39 | 22.90623 | 45.22114 | 39892 ft | 435 kts | 270° |
| 2026-05-07 13:39 | 22.91061 | 45.15565 | 39897 ft | 435 kts | 270° |
| 2026-05-07 13:40 | 22.91494 | 45.09065 | 39893 ft | 435 kts | 270° |
| 2026-05-07 13:40 | 22.91927 | 45.02514 | 39900 ft | 435 kts | 270° |
| 2026-05-07 13:41 | 22.92357 | 44.95966 | 39898 ft | 435 kts | 269° |
| 2026-05-07 13:41 | 22.92784 | 44.89424 | 39900 ft | 435 kts | 269° |
| 2026-05-07 13:42 | 22.93208 | 44.82881 | 39899 ft | 434 kts | 269° |
| 2026-05-07 13:42 | 22.93630 | 44.76341 | 39900 ft | 434 kts | 269° |
| 2026-05-07 13:43 | 22.94049 | 44.69800 | 39902 ft | 434 kts | 269° |
| 2026-05-07 13:43 | 22.94053 | 44.63324 | 39903 ft | 431 kts | 264° |
| 2026-05-07 13:44 | 22.93809 | 44.56822 | 39898 ft | 430 kts | 263° |
| 2026-05-07 13:44 | 22.93516 | 44.50349 | 39898 ft | 429 kts | 263° |
| 2026-05-07 13:45 | 22.93220 | 44.43878 | 39896 ft | 429 kts | 263° |
| 2026-05-07 13:45 | 22.92931 | 44.37456 | 39891 ft | 428 kts | 263° |
| 2026-05-07 13:46 | 22.92643 | 44.31010 | 39889 ft | 428 kts | 263° |
| 2026-05-07 13:46 | 22.92351 | 44.24558 | 39892 ft | 428 kts | 263° |
| 2026-05-07 13:47 | 22.92059 | 44.18142 | 39893 ft | 428 kts | 263° |
| 2026-05-07 13:47 | 22.91763 | 44.11705 | 39888 ft | 428 kts | 263° |
| 2026-05-07 13:48 | 22.91463 | 44.05256 | 39895 ft | 428 kts | 262° |
| 2026-05-07 13:48 | 22.91160 | 43.98801 | 39900 ft | 428 kts | 262° |
| 2026-05-07 13:49 | 22.90855 | 43.92349 | 39895 ft | 428 kts | 262° |
| 2026-05-07 13:49 | 22.90549 | 43.85941 | 39904 ft | 428 kts | 262° |
| 2026-05-07 13:50 | 22.90239 | 43.79482 | 39917 ft | 428 kts | 262° |
| 2026-05-07 13:50 | 22.89924 | 43.73005 | 39921 ft | 429 kts | 262° |
| 2026-05-07 13:51 | 22.89610 | 43.66577 | 39933 ft | 429 kts | 262° |
| 2026-05-07 13:51 | 22.89290 | 43.60093 | 39932 ft | 429 kts | 262° |
| 2026-05-07 13:52 | 22.88968 | 43.53622 | 39942 ft | 430 kts | 262° |
| 2026-05-07 13:52 | 22.88646 | 43.47189 | 39951 ft | 430 kts | 262° |
| 2026-05-07 13:53 | 22.88319 | 43.40709 | 39956 ft | 430 kts | 261° |
| 2026-05-07 13:53 | 22.87990 | 43.34240 | 39956 ft | 429 kts | 261° |
| 2026-05-07 13:54 | 22.87657 | 43.27776 | 39957 ft | 429 kts | 262° |
| 2026-05-07 13:54 | 22.87325 | 43.21352 | 39981 ft | 428 kts | 262° |
| 2026-05-07 13:55 | 22.86990 | 43.14912 | 39967 ft | 427 kts | 261° |
| 2026-05-07 13:55 | 22.86653 | 43.08496 | 39977 ft | 426 kts | 261° |
| 2026-05-07 13:56 | 22.86313 | 43.02083 | 39996 ft | 426 kts | 261° |
| 2026-05-07 13:56 | 22.85973 | 42.95680 | 39985 ft | 425 kts | 261° |
| 2026-05-07 13:57 | 22.85629 | 42.89268 | 39976 ft | 424 kts | 261° |
| 2026-05-07 13:57 | 22.85286 | 42.82927 | 39985 ft | 424 kts | 261° |
| 2026-05-07 13:58 | 22.84938 | 42.76535 | 39995 ft | 424 kts | 261° |
| 2026-05-07 13:58 | 22.84588 | 42.70146 | 39966 ft | 424 kts | 262° |
| 2026-05-07 13:59 | 22.84234 | 42.63749 | 39993 ft | 425 kts | 261° |
| 2026-05-07 13:59 | 22.83878 | 42.57351 | 40007 ft | 425 kts | 261° |
| 2026-05-07 14:00 | 22.83582 | 42.52044 | 40015 ft | 425 kts | 261° |
| 2026-05-07 14:00 | 22.83221 | 42.45642 | 40012 ft | 424 kts | 261° |
| 2026-05-07 14:01 | 22.82858 | 42.39261 | 40031 ft | 424 kts | 261° |
| 2026-05-07 14:01 | 22.82494 | 42.32877 | 40024 ft | 424 kts | 261° |
| 2026-05-07 14:02 | 22.82128 | 42.26536 | 40040 ft | 424 kts | 261° |
| 2026-05-07 14:02 | 22.81757 | 42.20152 | 40034 ft | 424 kts | 261° |
| 2026-05-07 14:03 | 22.81384 | 42.13770 | 40045 ft | 424 kts | 260° |
| 2026-05-07 14:03 | 22.81011 | 42.07437 | 40020 ft | 424 kts | 261° |
| 2026-05-07 14:04 | 22.80632 | 42.01048 | 40043 ft | 425 kts | 261° |
| 2026-05-07 14:04 | 22.80251 | 41.94646 | 40053 ft | 426 kts | 260° |
| 2026-05-07 14:05 | 22.79840 | 41.88235 | 40042 ft | 425 kts | 259° |
| 2026-05-07 14:05 | 22.79264 | 41.81865 | 40043 ft | 424 kts | 258° |
| 2026-05-07 14:06 | 22.78634 | 41.75547 | 40048 ft | 424 kts | 258° |
| 2026-05-07 14:06 | 22.78006 | 41.69189 | 40046 ft | 423 kts | 258° |
| 2026-05-07 14:07 | 22.77390 | 41.62837 | 40035 ft | 423 kts | 258° |
| 2026-05-07 14:07 | 22.76776 | 41.56491 | 40038 ft | 424 kts | 258° |
| 2026-05-07 14:08 | 22.76159 | 41.50135 | 40036 ft | 423 kts | 258° |
| 2026-05-07 14:08 | 22.75545 | 41.43839 | 40037 ft | 424 kts | 258° |
| 2026-05-07 14:09 | 22.74921 | 41.37468 | 40034 ft | 425 kts | 258° |
| 2026-05-07 14:09 | 22.74042 | 41.31180 | 40030 ft | 418 kts | 250° |
| 2026-05-07 14:10 | 22.72169 | 41.25240 | 40026 ft | 415 kts | 245° |
| 2026-05-07 14:10 | 22.70058 | 41.19423 | 40030 ft | 415 kts | 244° |
| 2026-05-07 14:10 | 22.68997 | 41.16568 | 39901 ft | 412 kts | 244° |
| 2026-05-07 14:11 | 22.67924 | 41.13683 | 39693 ft | 413 kts | 244° |
| 2026-05-07 14:11 | 22.66851 | 41.10790 | 39484 ft | 415 kts | 244° |
| 2026-05-07 14:11 | 22.65774 | 41.07880 | 39150 ft | 416 kts | 243° |
| 2026-05-07 14:11 | 22.64699 | 41.04965 | 38717 ft | 414 kts | 244° |
| 2026-05-07 14:12 | 22.63646 | 41.02098 | 38226 ft | 407 kts | 244° |
| 2026-05-07 14:12 | 22.62610 | 40.99273 | 37775 ft | 399 kts | 244° |
| 2026-05-07 14:12 | 22.61591 | 40.96500 | 37349 ft | 393 kts | 244° |
| 2026-05-07 14:12 | 22.60586 | 40.93765 | 36931 ft | 387 kts | 244° |
| 2026-05-07 14:13 | 22.59605 | 40.91104 | 36512 ft | 382 kts | 244° |
| 2026-05-07 14:13 | 22.58626 | 40.88449 | 36070 ft | 379 kts | 244° |
| 2026-05-07 14:13 | 22.57645 | 40.85796 | 35587 ft | 380 kts | 244° |
| 2026-05-07 14:13 | 22.56657 | 40.83133 | 35099 ft | 383 kts | 245° |
| 2026-05-07 14:14 | 22.55661 | 40.80450 | 34597 ft | 386 kts | 245° |
| 2026-05-07 14:14 | 22.54655 | 40.77735 | 34080 ft | 390 kts | 245° |
| 2026-05-07 14:14 | 22.53643 | 40.75002 | 33486 ft | 393 kts | 245° |
| 2026-05-07 14:14 | 22.52624 | 40.72251 | 32927 ft | 395 kts | 246° |
| 2026-05-07 14:15 | 22.51601 | 40.69487 | 32360 ft | 398 kts | 246° |
| 2026-05-07 14:15 | 22.50567 | 40.66697 | 31785 ft | 401 kts | 246° |
| 2026-05-07 14:15 | 22.49522 | 40.63879 | 31184 ft | 406 kts | 246° |
| 2026-05-07 14:15 | 22.48467 | 40.61034 | 30693 ft | 408 kts | 246° |
| 2026-05-07 14:16 | 22.47412 | 40.58189 | 30274 ft | 407 kts | 247° |
| 2026-05-07 14:16 | 22.46362 | 40.55360 | 29797 ft | 405 kts | 247° |
| 2026-05-07 14:16 | 22.45328 | 40.52577 | 29347 ft | 403 kts | 247° |
| 2026-05-07 14:16 | 22.44272 | 40.49736 | 28913 ft | 401 kts | 247° |
| 2026-05-07 14:17 | 22.43236 | 40.46950 | 28495 ft | 399 kts | 247° |
| 2026-05-07 14:17 | 22.42204 | 40.44177 | 28057 ft | 396 kts | 247° |
| 2026-05-07 14:17 | 22.41191 | 40.41458 | 27646 ft | 394 kts | 247° |
| 2026-05-07 14:17 | 22.40170 | 40.38717 | 27211 ft | 392 kts | 247° |
| 2026-05-07 14:18 | 22.39166 | 40.36025 | 26795 ft | 391 kts | 247° |
| 2026-05-07 14:18 | 22.38138 | 40.33272 | 26367 ft | 389 kts | 247° |
| 2026-05-07 14:18 | 22.37126 | 40.30562 | 25924 ft | 388 kts | 247° |
| 2026-05-07 14:18 | 22.36116 | 40.27858 | 25504 ft | 387 kts | 247° |
| 2026-05-07 14:19 | 22.35112 | 40.25171 | 25071 ft | 385 kts | 247° |
| 2026-05-07 14:19 | 22.34108 | 40.22489 | 24632 ft | 384 kts | 248° |
| 2026-05-07 14:19 | 22.33108 | 40.19815 | 24193 ft | 383 kts | 248° |
| 2026-05-07 14:19 | 22.32110 | 40.17150 | 23755 ft | 382 kts | 248° |
| 2026-05-07 14:20 | 22.31116 | 40.14499 | 23268 ft | 380 kts | 248° |
| 2026-05-07 14:20 | 22.30127 | 40.11859 | 22797 ft | 378 kts | 247° |
| 2026-05-07 14:20 | 22.29142 | 40.09233 | 22362 ft | 376 kts | 247° |
| 2026-05-07 14:20 | 22.28165 | 40.06629 | 21963 ft | 372 kts | 247° |
| 2026-05-07 14:21 | 22.27209 | 40.04083 | 21865 ft | 358 kts | 247° |
| 2026-05-07 14:21 | 22.26168 | 40.01739 | 21743 ft | 345 kts | 240° |
| 2026-05-07 14:21 | 22.24924 | 39.99570 | 21587 ft | 335 kts | 236° |
| 2026-05-07 14:21 | 22.23663 | 39.97501 | 21443 ft | 325 kts | 237° |
| 2026-05-07 14:22 | 22.22432 | 39.95496 | 21289 ft | 316 kts | 236° |
| 2026-05-07 14:22 | 22.21232 | 39.93542 | 21136 ft | 308 kts | 237° |
| 2026-05-07 14:22 | 22.20065 | 39.91636 | 20979 ft | 300 kts | 237° |
| 2026-05-07 14:22 | 22.18924 | 39.89773 | 20787 ft | 296 kts | 237° |
| 2026-05-07 14:23 | 22.17792 | 39.87922 | 20494 ft | 296 kts | 237° |
| 2026-05-07 14:23 | 22.16658 | 39.86068 | 20214 ft | 295 kts | 236° |
| 2026-05-07 14:23 | 22.15530 | 39.84225 | 19936 ft | 294 kts | 236° |
| 2026-05-07 14:23 | 22.14403 | 39.82382 | 19687 ft | 293 kts | 236° |
| 2026-05-07 14:24 | 22.13279 | 39.80547 | 19427 ft | 292 kts | 236° |
| 2026-05-07 14:24 | 22.12165 | 39.78728 | 19166 ft | 290 kts | 236° |
| 2026-05-07 14:24 | 22.11057 | 39.76919 | 18905 ft | 287 kts | 236° |
| 2026-05-07 14:24 | 22.09974 | 39.75151 | 18634 ft | 286 kts | 236° |
| 2026-05-07 14:25 | 22.08882 | 39.73368 | 18374 ft | 285 kts | 236° |
| 2026-05-07 14:25 | 22.07789 | 39.71585 | 18106 ft | 284 kts | 236° |
| 2026-05-07 14:25 | 22.06701 | 39.69811 | 17828 ft | 283 kts | 236° |
| 2026-05-07 14:25 | 22.05619 | 39.68047 | 17562 ft | 282 kts | 236° |
| 2026-05-07 14:26 | 22.04536 | 39.66283 | 17302 ft | 282 kts | 236° |
| 2026-05-07 14:26 | 22.03455 | 39.64521 | 17061 ft | 281 kts | 236° |
| 2026-05-07 14:26 | 22.02376 | 39.62764 | 16799 ft | 281 kts | 236° |
| 2026-05-07 14:26 | 22.01298 | 39.61010 | 16533 ft | 280 kts | 236° |
| 2026-05-07 14:27 | 22.00226 | 39.59264 | 16274 ft | 279 kts | 236° |
| 2026-05-07 14:27 | 21.99169 | 39.57547 | 16023 ft | 277 kts | 236° |
| 2026-05-07 14:27 | 21.98109 | 39.55822 | 15758 ft | 275 kts | 236° |
| 2026-05-07 14:27 | 21.97042 | 39.54087 | 15497 ft | 273 kts | 235° |
| 2026-05-07 14:28 | 21.96008 | 39.52406 | 15246 ft | 273 kts | 236° |
| 2026-05-07 14:28 | 21.94959 | 39.50700 | 15005 ft | 273 kts | 236° |
| 2026-05-07 14:28 | 21.93974 | 39.48880 | 14639 ft | 290 kts | 241° |
| 2026-05-07 14:28 | 21.93072 | 39.46916 | 14201 ft | 295 kts | 243° |
| 2026-05-07 14:29 | 21.92190 | 39.44922 | 13891 ft | 293 kts | 243° |
| 2026-05-07 14:29 | 21.91316 | 39.42944 | 13525 ft | 292 kts | 243° |
| 2026-05-07 14:29 | 21.90441 | 39.40971 | 13086 ft | 291 kts | 243° |
| 2026-05-07 14:29 | 21.89568 | 39.39005 | 12664 ft | 290 kts | 243° |
| 2026-05-07 14:30 | 21.88696 | 39.37047 | 12246 ft | 290 kts | 243° |
| 2026-05-07 14:30 | 21.87822 | 39.35085 | 11844 ft | 289 kts | 243° |
| 2026-05-07 14:30 | 21.86962 | 39.33156 | 11429 ft | 289 kts | 243° |
| 2026-05-07 14:30 | 21.86095 | 39.31212 | 11025 ft | 288 kts | 243° |
| 2026-05-07 14:31 | 21.85231 | 39.29276 | 10701 ft | 283 kts | 244° |
| 2026-05-07 14:31 | 21.84386 | 39.27385 | 10421 ft | 278 kts | 244° |
| 2026-05-07 14:31 | 21.83546 | 39.25506 | 10060 ft | 277 kts | 244° |
| 2026-05-07 14:31 | 21.82545 | 39.23750 | 9731 ft | 274 kts | 227° |
| 2026-05-07 14:32 | 21.80951 | 39.22697 | 9436 ft | 272 kts | 196° |
| 2026-05-07 14:32 | 21.79056 | 39.22710 | 8933 ft | 280 kts | 168° |
| 2026-05-07 14:32 | 21.77192 | 39.23383 | 8438 ft | 283 kts | 161° |
| 2026-05-07 14:32 | 21.75359 | 39.24157 | 8054 ft | 282 kts | 161° |
| 2026-05-07 14:33 | 21.73565 | 39.24915 | 7684 ft | 279 kts | 160° |
| 2026-05-07 14:33 | 21.71781 | 39.25654 | 7345 ft | 272 kts | 161° |
| 2026-05-07 14:33 | 21.70031 | 39.26364 | 6974 ft | 266 kts | 162° |
| 2026-05-07 14:33 | 21.68307 | 39.27054 | 6604 ft | 261 kts | 161° |
| 2026-05-07 14:34 | 21.66606 | 39.27734 | 6249 ft | 259 kts | 160° |
| 2026-05-07 14:34 | 21.64917 | 39.28405 | 5863 ft | 257 kts | 160° |
| 2026-05-07 14:34 | 21.63248 | 39.29066 | 5473 ft | 254 kts | 160° |
| 2026-05-07 14:34 | 21.61602 | 39.29714 | 5107 ft | 250 kts | 160° |
| 2026-05-07 14:35 | 21.59981 | 39.30351 | 4720 ft | 246 kts | 160° |
| 2026-05-07 14:35 | 21.58392 | 39.30973 | 4288 ft | 246 kts | 160° |
| 2026-05-07 14:35 | 21.56783 | 39.31605 | 3818 ft | 245 kts | 160° |
| 2026-05-07 14:35 | 21.55184 | 39.32232 | 3456 ft | 242 kts | 160° |
| 2026-05-07 14:36 | 21.53620 | 39.32845 | 3140 ft | 237 kts | 160° |
| 2026-05-07 14:36 | 21.52097 | 39.33443 | 3010 ft | 227 kts | 160° |
| 2026-05-07 14:36 | 21.50633 | 39.34009 | 3003 ft | 222 kts | 162° |
| 2026-05-07 14:36 | 21.49125 | 39.34268 | 3005 ft | 216 kts | 181° |
| 2026-05-07 14:37 | 21.47686 | 39.33916 | 3003 ft | 213 kts | 205° |
| 2026-05-07 14:37 | 21.46150 | 39.31406 | 3000 ft | 215 kts | 265° |
| 2026-05-07 14:37 | 21.46473 | 39.29851 | 2997 ft | 218 kts | 298° |
| 2026-05-07 14:38 | 21.47376 | 39.28540 | 2998 ft | 219 kts | 308° |
| 2026-05-07 14:38 | 21.48354 | 39.27307 | 2995 ft | 217 kts | 308° |
| 2026-05-07 14:38 | 21.49328 | 39.26063 | 2996 ft | 217 kts | 308° |
| 2026-05-07 14:38 | 21.50283 | 39.24802 | 2994 ft | 216 kts | 308° |
| 2026-05-07 14:39 | 21.51438 | 39.23794 | 2991 ft | 217 kts | 338° |
| 2026-05-07 14:39 | 21.52885 | 39.23366 | 2923 ft | 215 kts | 346° |
| 2026-05-07 14:39 | 21.54309 | 39.22927 | 2605 ft | 208 kts | 341° |
| 2026-05-07 14:39 | 21.55617 | 39.22415 | 2300 ft | 197 kts | 339° |
| 2026-05-07 14:40 | 21.56851 | 39.21921 | 2038 ft | 180 kts | 340° |
| 2026-05-07 14:40 | 21.57953 | 39.21488 | 1832 ft | 157 kts | 341° |
| 2026-05-07 14:40 | 21.58930 | 39.21104 | 1647 ft | 144 kts | 340° |
| 2026-05-07 14:40 | 21.59809 | 39.20756 | 1435 ft | 125 kts | 340° |
| 2026-05-07 14:41 | 21.60595 | 39.20444 | 1314 ft | 118 kts | 340° |
| 2026-05-07 14:41 | 21.61367 | 39.20139 | 1157 ft | 118 kts | 339° |
| 2026-05-07 14:41 | 21.62140 | 39.19834 | 1006 ft | 117 kts | 339° |
| 2026-05-07 14:41 | 21.62893 | 39.19536 | 862 ft | 116 kts | 340° |
| 2026-05-07 14:42 | 21.63669 | 39.19230 | 721 ft | 121 kts | 339° |
| 2026-05-07 14:42 | 21.64463 | 39.18915 | 566 ft | 122 kts | 338° |
| 2026-05-07 14:42 | 21.65266 | 39.18601 | 388 ft | 125 kts | 338° |
| 2026-05-07 14:42 | 21.66074 | 39.18276 | 206 ft | 126 kts | 338° |
| 2026-05-07 14:43 | 21.66897 | 39.17952 | 49 ft | 123 kts | 338° |
| 2026-05-07 14:43 | 21.67583 | 39.17681 | 37 ft | 83 kts | 340° |
| 2026-05-07 14:43 | 21.68049 | 39.17498 | 34 ft | 60 kts | 340° |
| 2026-05-07 14:43 | 21.68315 | 39.17351 | 31 ft | 25 kts | 309° |
| 2026-05-07 14:44 | 21.68387 | 39.17249 | 30 ft | 6 kts | 308° |
| 2026-05-07 14:44 | 21.68416 | 39.17209 | 31 ft | 7 kts | 308° |
| 2026-05-07 14:44 | 21.68444 | 39.17168 | 31 ft | 7 kts | 306° |
| 2026-05-07 14:44 | 21.68475 | 39.17124 | 31 ft | 8 kts | 307° |
| 2026-05-07 14:45 | 21.68497 | 39.17070 | 31 ft | 8 kts | 280° |
| 2026-05-07 14:45 | 21.68485 | 39.17012 | 31 ft | 7 kts | 225° |
| 2026-05-07 14:45 | 21.68436 | 39.17015 | 32 ft | 10 kts | 163° |
| 2026-05-07 14:45 | 21.68330 | 39.17055 | 32 ft | 22 kts | 159° |
| 2026-05-07 14:46 | 21.68171 | 39.17118 | 33 ft | 25 kts | 160° |
| 2026-05-07 14:46 | 21.68023 | 39.17175 | 34 ft | 17 kts | 163° |
| 2026-05-07 14:46 | 21.67943 | 39.17105 | 34 ft | 17 kts | 250° |
| 2026-05-07 14:46 | 21.67901 | 39.16980 | 34 ft | 19 kts | 251° |
| 2026-05-07 14:47 | 21.67855 | 39.16845 | 34 ft | 20 kts | 250° |
| 2026-05-07 14:47 | 21.67806 | 39.16701 | 34 ft | 21 kts | 249° |
| 2026-05-07 14:47 | 21.67754 | 39.16548 | 34 ft | 22 kts | 250° |
| 2026-05-07 14:47 | 21.67701 | 39.16397 | 34 ft | 22 kts | 249° |
| 2026-05-07 14:48 | 21.67654 | 39.16253 | 34 ft | 15 kts | 248° |
| 2026-05-07 14:48 | 21.67569 | 39.16217 | 34 ft | 15 kts | 161° |
| 2026-05-07 14:48 | 21.67467 | 39.16259 | 34 ft | 17 kts | 160° |
| 2026-05-07 14:48 | 21.67353 | 39.16304 | 35 ft | 18 kts | 160° |
| 2026-05-07 14:49 | 21.67227 | 39.16353 | 36 ft | 20 kts | 160° |
| 2026-05-07 14:49 | 21.67091 | 39.16407 | 37 ft | 22 kts | 160° |
| 2026-05-07 14:49 | 21.66945 | 39.16464 | 37 ft | 23 kts | 160° |
| 2026-05-07 14:49 | 21.66843 | 39.16505 | 38 ft | 24 kts | 160° |
| 2026-05-07 14:50 | 21.66690 | 39.16566 | 38 ft | 18 kts | 159° |
| 2026-05-07 14:50 | 21.66639 | 39.16650 | 38 ft | 15 kts | 75° |
| 2026-05-07 14:50 | 21.66683 | 39.16787 | 38 ft | 0 kts | 71° |
| 2026-05-07 14:50 | 21.66684 | 39.16792 | 38 ft | 2 kts | 71° |
| 2026-05-07 14:51 | 21.66692 | 39.16817 | 38 ft | 5 kts | 71° |
| 2026-05-07 14:51 | 21.66708 | 39.16856 | 38 ft | 7 kts | 53° |
| 2026-05-07 14:51 | 21.66746 | 39.16899 | 38 ft | 9 kts | 53° |
| 2026-05-07 14:51 | 21.66776 | 39.16962 | 38 ft | 9 kts | 65° |
| 2026-05-07 14:52 | 21.66785 | 39.16983 | 38 ft | 2 kts | 65° |
| 2026-05-07 14:52 | 21.66787 | 39.16988 | 38 ft | 0 kts | 65° |